createdAt,value
2023-04-03T00:00:11.272Z,99501.16
2023-04-03T00:02:59.051Z,99503.52
2023-04-03T00:05:27.451Z,99506.08
2023-04-03T00:07:55.241Z,99505.85
2023-04-03T00:10:23.019Z,99507.95
2023-04-03T00:12:51.028Z,99509.31
2023-04-03T00:15:18.840Z,99507.20
2023-04-03T00:17:46.964Z,99511.02
2023-04-03T00:20:14.781Z,99512.45
2023-04-03T00:22:42.452Z,99511.33
2023-04-03T00:25:10.118Z,99516.86
2023-04-03T00:27:37.871Z,99520.02
2023-04-03T00:30:05.635Z,99519.46
2023-04-03T00:32:33.456Z,99521.98
2023-04-03T00:35:01.362Z,99523.12
2023-04-03T00:37:29.127Z,99523.48
2023-04-03T00:39:56.792Z,99521.84
2023-04-03T00:42:24.460Z,99526.20
2023-04-03T00:44:52.213Z,99522.17
2023-04-03T00:47:19.874Z,99521.52
2023-04-03T00:49:47.842Z,99525.95
2023-04-03T00:52:16.426Z,99526.98
2023-04-03T00:54:44.093Z,99529.89
2023-04-03T00:57:12.160Z,99530.09
2023-04-03T00:59:40.043Z,99532.75
2023-04-03T01:02:07.789Z,99532.23
2023-04-03T01:04:35.918Z,99536.84
2023-04-03T01:07:03.837Z,99531.83
2023-04-03T01:09:32.008Z,99538.02
2023-04-03T01:11:59.665Z,99537.50
2023-04-03T01:14:27.329Z,99537.45
2023-04-03T01:16:55.102Z,99539.89
2023-04-03T01:19:22.755Z,99541.41
2023-04-03T01:21:50.517Z,99538.78
2023-04-03T01:24:18.189Z,99541.52
2023-04-03T01:26:45.949Z,99544.09
2023-04-03T01:29:13.709Z,99544.77
2023-04-03T01:31:41.385Z,99546.88
2023-04-03T01:34:09.141Z,99550.91
2023-04-03T01:36:37.124Z,99551.16
2023-04-03T01:39:04.872Z,99554.00
2023-04-03T01:41:32.637Z,99555.64
2023-04-03T01:44:00.501Z,99551.73
2023-04-03T01:46:28.163Z,99553.70
2023-04-03T01:48:55.818Z,99562.33
2023-04-03T01:51:23.482Z,99560.13
2023-04-03T01:53:52.693Z,99564.05
2023-04-03T01:56:21.429Z,99563.90
2023-04-03T01:58:49.242Z,99566.80
2023-04-03T02:01:17.392Z,99567.54
2023-04-03T02:03:45.312Z,99569.13
2023-04-03T02:06:13.072Z,99570.89
2023-04-03T02:08:41.518Z,99574.81
2023-04-03T02:11:09.177Z,99570.82
2023-04-03T02:13:37.134Z,99575.19
2023-04-03T02:16:04.806Z,99573.45
2023-04-03T02:18:32.468Z,99581.55
2023-04-03T02:21:00.147Z,99580.59
2023-04-03T02:23:27.896Z,99583.80
2023-04-03T02:25:55.656Z,99583.15
2023-04-03T02:28:23.316Z,99588.49
2023-04-03T02:30:51.024Z,99585.71
2023-04-03T02:33:19.151Z,99583.92
2023-04-03T02:35:54.270Z,99584.95
2023-04-03T02:38:22.173Z,99589.36
2023-04-03T02:40:49.919Z,99590.19
2023-04-03T02:43:17.683Z,99595.28
2023-04-03T02:45:45.363Z,99591.73
2023-04-03T02:48:13.326Z,99592.76
2023-04-03T02:50:40.978Z,99597.46
2023-04-03T02:53:08.744Z,99600.23
2023-04-03T02:55:36.404Z,99596.80
2023-04-03T02:58:04.786Z,99602.96
2023-04-03T03:00:32.757Z,99605.73
2023-04-03T03:03:00.952Z,99607.18
2023-04-03T03:05:28.828Z,99608.75
2023-04-03T03:07:56.965Z,99609.05
2023-04-03T03:10:24.938Z,99611.48
2023-04-03T03:12:52.595Z,99608.52
2023-04-03T03:15:20.668Z,99616.56
2023-04-03T03:17:48.471Z,99615.64
2023-04-03T03:20:16.717Z,99616.27
2023-04-03T03:22:44.471Z,99621.00
2023-04-03T03:25:12.239Z,99622.39
2023-04-03T03:27:39.900Z,99622.30
2023-04-03T03:30:07.665Z,99627.36
2023-04-03T03:32:35.688Z,99630.02
2023-04-03T03:35:03.443Z,99630.77
2023-04-03T03:37:31.466Z,99632.49
2023-04-03T03:39:59.227Z,99633.46
2023-04-03T03:42:26.991Z,99634.59
2023-04-03T03:44:54.754Z,99637.53
2023-04-03T03:47:22.595Z,99637.52
2023-04-03T03:49:50.296Z,99641.90
2023-04-03T03:52:18.048Z,99642.83
2023-04-03T03:54:45.709Z,99646.49
2023-04-03T03:57:13.590Z,99644.27
2023-04-03T03:59:43.032Z,99647.10
2023-04-03T04:02:11.199Z,99649.38
2023-04-03T04:04:39.024Z,99652.83
2023-04-03T04:07:06.679Z,99656.39
2023-04-03T04:09:34.344Z,99657.37
2023-04-03T04:12:02.031Z,99658.96
2023-04-03T04:14:29.791Z,99658.95
2023-04-03T04:16:57.510Z,99663.20
2023-04-03T04:19:25.420Z,99664.85
2023-04-03T04:21:53.164Z,99665.55
2023-04-03T04:24:20.827Z,99666.00
2023-04-03T04:26:48.591Z,99666.77
2023-04-03T04:29:16.559Z,99669.88
2023-04-03T04:31:44.223Z,99669.70
2023-04-03T04:34:12.396Z,99668.64
2023-04-03T04:36:40.121Z,99676.46
2023-04-03T04:39:08.022Z,99681.67
2023-04-03T04:41:35.998Z,99682.66
2023-04-03T04:44:03.656Z,99683.58
2023-04-03T04:46:31.566Z,99684.16
2023-04-03T04:48:59.283Z,99685.55
2023-04-03T04:51:27.503Z,99686.16
2023-04-03T04:53:56.318Z,99690.25
2023-04-03T04:56:24.317Z,99695.09
2023-04-03T04:58:51.978Z,99697.89
2023-04-03T05:01:19.966Z,99699.67
2023-04-03T05:03:48.938Z,99704.55
2023-04-03T05:06:16.610Z,99706.17
2023-04-03T05:08:44.366Z,99705.86
2023-04-03T05:11:12.233Z,99709.56
2023-04-03T05:13:40.016Z,99711.95
2023-04-03T05:16:07.776Z,99711.77
2023-04-03T05:18:36.452Z,99716.75
2023-04-03T05:21:04.211Z,99719.56
2023-04-03T05:23:31.875Z,99719.63
2023-04-03T05:25:59.530Z,99722.23
2023-04-03T05:28:27.303Z,99722.84
2023-04-03T05:30:55.987Z,99724.61
2023-04-03T05:33:23.663Z,99731.27
2023-04-03T05:35:51.422Z,99728.09
2023-04-03T05:38:19.173Z,99734.08
2023-04-03T05:40:46.935Z,99736.14
2023-04-03T05:43:14.602Z,99734.71
2023-04-03T05:45:42.938Z,99733.71
2023-04-03T05:48:11.986Z,99733.67
2023-04-03T05:50:42.735Z,99734.59
2023-04-03T05:53:10.572Z,99734.56
2023-04-03T05:55:38.591Z,99738.32
2023-04-03T05:58:06.512Z,99741.84
2023-04-03T06:00:34.186Z,99741.85
2023-04-03T06:03:02.272Z,99748.98
2023-04-03T06:05:30.203Z,99749.71
2023-04-03T06:07:58.380Z,99756.33
2023-04-03T06:10:26.264Z,99755.80
2023-04-03T06:12:53.913Z,99755.40
2023-04-03T06:15:22.399Z,99757.63
2023-04-03T06:17:50.323Z,99758.27
2023-04-03T06:20:18.123Z,99759.48
2023-04-03T06:22:45.997Z,99759.69
2023-04-03T06:25:13.760Z,99759.48
2023-04-03T06:27:41.521Z,99765.25
2023-04-03T06:30:09.278Z,99768.13
2023-04-03T06:32:37.088Z,99773.39
2023-04-03T06:35:04.912Z,99774.20
2023-04-03T06:37:33.597Z,99775.13
2023-04-03T06:40:04.225Z,99779.65
2023-04-03T06:42:31.993Z,99779.81
2023-04-03T06:44:59.674Z,99782.72
2023-04-03T06:47:27.454Z,99784.41
2023-04-03T06:49:55.182Z,99785.70
2023-04-03T06:52:23.155Z,99788.27
2023-04-03T06:54:52.963Z,99787.62
2023-04-03T06:57:20.759Z,99791.23
2023-04-03T06:59:48.597Z,99792.63
2023-04-03T07:02:16.458Z,99795.05
2023-04-03T07:04:44.240Z,99798.39
2023-04-03T07:07:12.088Z,99796.73
2023-04-03T07:09:39.755Z,99798.90
2023-04-03T07:12:07.519Z,99805.87
2023-04-03T07:14:35.692Z,99806.34
2023-04-03T07:17:03.456Z,99814.42
2023-04-03T07:19:31.728Z,99822.50
2023-04-03T07:21:59.493Z,99825.06
2023-04-03T07:24:27.464Z,99832.91
2023-04-03T07:26:55.341Z,99835.06
2023-04-03T07:29:23.096Z,99842.24
2023-04-03T07:31:50.799Z,99837.95
2023-04-03T07:34:18.727Z,99846.90
2023-04-03T07:36:46.487Z,99850.11
2023-04-03T07:39:14.364Z,99852.29
2023-04-03T07:41:42.123Z,99852.50
2023-04-03T07:44:11.108Z,99853.86
2023-04-03T07:46:39.594Z,99853.90
2023-04-03T07:49:07.354Z,99857.05
2023-04-03T07:51:36.046Z,99859.73
2023-04-03T07:54:03.712Z,99859.73
2023-04-03T07:56:31.472Z,99860.66
2023-04-03T07:58:59.237Z,99867.59
2023-04-03T08:01:27.236Z,99867.85
2023-04-03T08:03:55.102Z,99863.46
2023-04-03T08:06:32.957Z,99864.19
2023-04-03T08:09:01.038Z,99864.04
2023-04-03T08:11:28.803Z,99862.41
2023-04-03T08:13:57.284Z,99866.48
2023-04-03T08:16:26.910Z,99864.62
2023-04-03T08:18:54.860Z,99868.70
2023-04-03T08:21:22.875Z,99871.61
2023-04-03T08:23:51.413Z,99874.78
2023-04-03T08:26:19.179Z,99878.33
2023-04-03T08:28:46.834Z,99879.78
2023-04-03T08:31:14.901Z,99883.69
2023-04-03T08:33:42.784Z,99882.11
2023-04-03T08:36:10.965Z,99882.14
2023-04-03T08:38:38.844Z,99882.44
2023-04-03T08:41:06.683Z,99886.17
2023-04-03T08:43:34.345Z,99889.41
2023-04-03T08:46:02.064Z,99895.66
2023-04-03T08:48:29.872Z,99900.83
2023-04-03T08:50:57.655Z,99898.52
2023-04-03T08:53:25.679Z,99905.37
2023-04-03T08:55:53.374Z,99903.96
2023-04-03T08:58:21.039Z,99910.59
2023-04-03T09:00:48.794Z,99911.52
2023-04-03T09:03:17.110Z,99921.78
2023-04-03T09:05:45.036Z,99920.43
2023-04-03T09:08:12.701Z,99922.63
2023-04-03T09:10:40.669Z,99920.23
2023-04-03T09:13:08.432Z,99919.59
2023-04-03T09:15:39.445Z,99921.39
2023-04-03T09:18:07.657Z,99924.96
2023-04-03T09:20:36.039Z,99922.52
2023-04-03T09:23:03.997Z,99927.61
2023-04-03T09:25:32.175Z,99931.92
2023-04-03T09:28:00.137Z,99930.42
2023-04-03T09:30:28.725Z,99929.43
2023-04-03T09:32:56.534Z,99931.01
2023-04-03T09:35:36.469Z,99932.13
2023-04-03T09:38:12.100Z,99933.77
2023-04-03T09:40:40.543Z,99936.02
2023-04-03T09:43:08.534Z,99934.82
2023-04-03T09:45:36.306Z,99934.73
2023-04-03T09:48:05.558Z,99936.21
2023-04-03T09:50:35.435Z,99939.81
2023-04-03T09:53:03.175Z,99939.90
2023-04-03T09:55:31.165Z,99939.66
2023-04-03T09:57:58.907Z,99939.45
2023-04-03T10:00:26.568Z,99941.64
2023-04-03T10:02:54.274Z,99940.24
2023-04-03T10:05:22.064Z,99939.60
2023-04-03T10:10:19.672Z,99948.16
2023-04-03T10:12:47.364Z,99946.21
2023-04-03T10:15:15.131Z,99946.85
2023-04-03T10:17:43.080Z,99943.02
2023-04-03T10:20:10.831Z,99936.38
2023-04-03T10:22:39.511Z,99941.54
2023-04-03T10:25:07.275Z,99942.71
2023-04-03T10:27:35.144Z,99938.02
2023-04-03T10:30:02.808Z,99939.08
2023-04-03T10:32:30.599Z,99939.40
2023-04-03T10:35:04.495Z,99936.40
2023-04-03T10:37:37.876Z,99938.80
2023-04-03T10:40:06.375Z,99936.19
2023-04-03T10:42:34.116Z,99940.47
2023-04-03T10:45:01.761Z,99940.18
2023-04-03T10:47:30.276Z,99934.49
2023-04-03T10:49:59.970Z,99937.52
2023-04-03T10:52:28.142Z,99936.52
2023-04-03T10:54:56.229Z,99935.73
2023-04-03T10:57:23.897Z,99936.02
2023-04-03T10:59:51.641Z,99936.62
2023-04-03T11:02:20.512Z,99941.55
2023-04-03T11:04:49.014Z,99941.85
2023-04-03T11:07:16.881Z,99943.33
2023-04-03T11:09:45.057Z,99944.50
2023-04-03T11:12:12.819Z,99944.08
2023-04-03T11:14:40.890Z,99943.04
2023-04-03T11:17:08.656Z,99947.41
2023-04-03T11:19:36.523Z,99953.30
2023-04-03T11:22:04.906Z,99946.11
2023-04-03T11:24:32.559Z,99955.13
2023-04-03T11:27:00.738Z,99948.76
2023-04-03T11:32:01.894Z,99953.66
2023-04-03T11:34:29.559Z,99956.04
2023-04-03T11:36:57.364Z,99954.72
2023-04-03T11:39:25.116Z,99954.70
2023-04-03T11:42:00.242Z,99956.69
2023-04-03T11:44:34.860Z,99955.48
2023-04-03T11:47:02.951Z,99952.75
2023-04-03T11:49:30.781Z,99956.83
2023-04-03T11:51:58.446Z,99957.41
2023-04-03T11:54:29.998Z,99954.73
2023-04-03T11:57:00.452Z,99963.77
2023-04-03T11:59:29.212Z,99961.98
2023-04-03T12:01:57.724Z,99964.41
2023-04-03T12:04:25.868Z,99967.52
2023-04-03T12:06:53.728Z,99964.30
2023-04-03T12:09:21.596Z,99967.30
2023-04-03T12:11:49.770Z,99960.91
2023-04-03T12:14:17.941Z,99966.66
2023-04-03T12:16:45.994Z,99964.39
2023-04-03T12:19:13.775Z,99966.93
2023-04-03T12:21:41.436Z,99962.14
2023-04-03T12:24:09.200Z,99962.91
2023-04-03T12:26:47.638Z,99966.35
2023-04-03T12:29:17.116Z,99964.79
2023-04-03T12:31:44.890Z,99966.94
2023-04-03T12:34:12.650Z,99969.96
2023-04-03T12:36:40.721Z,99969.02
2023-04-03T12:39:08.588Z,99970.35
2023-04-03T12:41:36.354Z,99968.80
2023-04-03T12:44:04.015Z,99966.88
2023-04-03T12:46:31.946Z,99967.09
2023-04-03T12:48:59.751Z,99966.71
2023-04-03T12:51:27.515Z,99971.52
2023-04-03T12:53:55.275Z,99973.19
2023-04-03T12:56:23.450Z,99974.64
2023-04-03T12:58:51.213Z,99971.04
2023-04-03T13:01:19.503Z,99965.79
2023-04-03T13:03:47.346Z,99967.98
2023-04-03T13:06:15.223Z,99970.02
2023-04-03T13:08:42.884Z,99972.17
2023-04-03T13:11:11.060Z,99972.89
2023-04-03T13:13:40.048Z,99973.42
2023-04-03T13:16:07.791Z,99971.41
2023-04-03T13:18:35.581Z,99970.45
2023-04-03T13:21:03.462Z,99968.56
2023-04-03T13:23:31.416Z,99959.92
2023-04-03T13:26:02.252Z,99964.34
2023-04-03T13:28:29.897Z,99961.48
2023-04-03T13:30:57.681Z,99960.59
2023-04-03T13:33:25.443Z,99957.48
2023-04-03T13:35:54.054Z,99964.33
2023-04-03T13:38:21.789Z,99964.09
2023-04-03T13:43:34.721Z,99961.58
2023-04-03T13:46:02.638Z,99962.35
2023-04-03T13:48:30.677Z,99965.01
2023-04-03T13:50:58.420Z,99960.68
2023-04-03T13:53:26.288Z,99960.02
2023-04-03T13:55:53.909Z,99961.66
2023-04-03T13:58:21.612Z,99963.25
2023-04-03T14:00:49.403Z,99964.84
2023-04-03T14:03:17.242Z,99967.30
2023-04-03T14:05:46.448Z,99966.69
2023-04-03T14:08:14.102Z,99965.73
2023-04-03T14:10:41.762Z,99969.95
2023-04-03T14:13:09.428Z,99961.49
2023-04-03T14:15:37.354Z,99961.53
2023-04-03T14:18:06.633Z,99963.46
2023-04-03T14:20:35.798Z,99957.72
2023-04-03T14:23:03.858Z,99957.23
2023-04-03T14:25:31.622Z,99957.30
2023-04-03T14:28:01.127Z,99957.55
2023-04-03T14:30:28.790Z,99956.38
2023-04-03T14:32:56.836Z,99955.85
2023-04-03T14:35:24.741Z,99962.90
2023-04-03T14:37:52.490Z,99956.35
2023-04-03T14:40:20.151Z,99958.57
2023-04-03T14:42:49.452Z,99955.23
2023-04-03T14:45:17.120Z,99954.83
2023-04-03T14:47:44.856Z,99949.16
2023-04-03T14:50:12.746Z,99950.10
2023-04-03T14:52:41.210Z,99948.58
2023-04-03T14:55:09.604Z,99945.81
2023-04-03T14:57:37.473Z,99946.52
2023-04-03T15:00:05.499Z,99944.09
2023-04-03T15:02:33.723Z,99942.88
2023-04-03T15:05:01.795Z,99949.50
2023-04-03T15:07:29.450Z,99947.64
2023-04-03T15:09:57.833Z,99943.66
2023-04-03T15:12:25.616Z,99947.17
2023-04-03T15:15:00.251Z,99937.66
2023-04-03T15:17:30.806Z,99937.60
2023-04-03T15:19:58.509Z,99938.89
2023-04-03T15:22:26.173Z,99939.41
2023-04-03T15:24:53.845Z,99937.86
2023-04-03T15:27:21.613Z,99933.97
2023-04-03T15:29:49.383Z,99935.90
2023-04-03T15:32:17.202Z,99936.98
2023-04-03T15:34:46.332Z,99940.11
2023-04-03T15:37:14.001Z,99938.26
2023-04-03T15:39:41.748Z,99937.68
2023-04-03T15:42:09.512Z,99938.79
2023-04-03T15:44:37.504Z,99944.05
2023-04-03T15:47:05.259Z,99942.11
2023-04-03T15:49:33.010Z,99942.11
2023-04-03T15:52:01.080Z,99946.63
2023-04-03T15:54:30.641Z,99946.10
2023-04-03T15:56:58.522Z,99943.02
2023-04-03T15:59:26.463Z,99942.33
2023-04-03T16:01:54.457Z,99943.29
2023-04-03T16:04:22.320Z,99941.77
2023-04-03T16:06:50.226Z,99947.45
2023-04-03T16:09:17.987Z,99948.91
2023-04-03T16:11:46.119Z,99942.36
2023-04-03T16:14:13.823Z,99944.14
2023-04-03T16:16:41.589Z,99947.61
2023-04-03T16:19:09.349Z,99947.50
2023-04-03T16:21:37.026Z,99950.08
2023-04-03T16:24:04.717Z,99948.71
2023-04-03T16:26:32.542Z,99952.27
2023-04-03T16:29:00.199Z,99948.73
2023-04-03T16:31:28.033Z,99949.36
2023-04-03T16:33:55.724Z,99952.11
2023-04-03T16:36:23.413Z,99951.48
2023-04-03T16:38:51.257Z,99956.30
2023-04-03T16:41:19.020Z,99952.23
2023-04-03T16:43:46.800Z,99948.44
2023-04-03T16:46:14.600Z,99951.80
2023-04-03T16:48:42.518Z,99948.05
2023-04-03T16:51:10.183Z,99947.88
2023-04-03T16:53:37.956Z,99949.45
2023-04-03T16:56:05.609Z,99950.42
2023-04-03T16:58:33.382Z,99952.64
2023-04-03T17:01:01.285Z,99951.91
2023-04-03T17:03:29.430Z,99958.83
2023-04-03T17:05:57.174Z,99961.66
2023-04-03T17:08:24.939Z,99958.93
2023-04-03T17:10:54.824Z,99962.92
2023-04-03T17:13:22.724Z,99963.64
2023-04-03T17:15:50.382Z,99970.08
2023-04-03T17:18:18.036Z,99974.55
2023-04-03T17:20:46.008Z,99974.55
2023-04-03T17:23:13.676Z,99977.45
2023-04-03T17:25:41.439Z,99978.52
2023-04-03T17:28:09.298Z,99982.66
2023-04-03T17:30:36.967Z,99984.36
2023-04-03T17:33:04.650Z,99989.41
2023-04-03T17:35:32.390Z,99987.38
2023-04-03T17:38:00.065Z,99987.48
2023-04-03T17:40:27.818Z,99986.73
2023-04-03T17:42:55.476Z,99990.61
2023-04-03T17:45:24.242Z,99995.60
2023-04-03T17:47:52.495Z,99998.96
2023-04-03T17:50:22.190Z,99997.69
2023-04-03T17:52:50.337Z,99998.14
2023-04-03T17:55:18.698Z,100003.56
2023-04-03T17:57:46.566Z,100003.32
2023-04-03T18:00:15.902Z,100002.36
2023-04-03T18:02:43.670Z,100003.59
2023-04-03T18:05:15.716Z,100006.55
2023-04-03T18:07:47.381Z,100007.95
2023-04-03T18:10:15.751Z,100008.59
2023-04-03T18:12:43.629Z,100010.80
2023-04-03T18:15:11.894Z,100014.60
2023-04-03T18:17:39.837Z,100013.84
2023-04-03T18:20:07.927Z,100017.84
2023-04-03T18:22:35.773Z,100015.70
2023-04-03T18:25:05.507Z,100017.30
2023-04-03T18:27:33.154Z,100013.70
2023-04-03T18:30:00.813Z,100017.83
2023-04-03T18:32:28.494Z,100014.66
2023-04-03T18:34:56.239Z,100019.54
2023-04-03T18:37:24.512Z,100014.11
2023-04-03T18:39:52.179Z,100010.16
2023-04-03T18:42:19.942Z,100009.98
2023-04-03T18:44:47.704Z,100011.10
2023-04-03T18:47:15.672Z,100010.84
2023-04-03T18:49:43.505Z,100011.49
2023-04-03T18:52:11.302Z,100011.35
2023-04-03T18:54:39.168Z,100013.44
2023-04-03T18:57:06.937Z,100016.52
2023-04-03T18:59:34.697Z,100016.92
2023-04-03T19:02:02.428Z,100013.16
2023-04-03T19:04:30.124Z,100012.15
2023-04-03T19:06:57.783Z,100015.30
2023-04-03T19:09:25.448Z,100011.46
2023-04-03T19:11:53.312Z,100018.55
2023-04-03T19:14:20.997Z,100013.86
2023-04-03T19:16:48.663Z,100015.43
2023-04-03T19:19:16.400Z,100016.91
2023-04-03T19:21:44.178Z,100017.76
2023-04-03T19:24:11.925Z,100021.83
2023-04-03T19:26:39.590Z,100018.33
2023-04-03T19:29:07.351Z,100016.73
2023-04-03T19:31:36.968Z,100015.20
2023-04-03T19:34:04.731Z,100018.64
2023-04-03T19:36:32.492Z,100018.45
2023-04-03T19:39:00.188Z,100020.04
2023-04-03T19:41:28.322Z,100021.70
2023-04-03T19:43:56.399Z,100019.02
2023-04-03T19:46:24.217Z,100020.98
2023-04-03T19:48:52.373Z,100023.08
2023-04-03T19:51:20.102Z,100023.77
2023-04-03T19:53:48.892Z,100021.89
2023-04-03T19:56:17.178Z,100023.35
2023-04-03T19:58:45.896Z,100020.34
2023-04-03T20:01:13.710Z,100020.96
2023-04-03T20:03:43.120Z,100023.56
2023-04-03T20:06:11.088Z,100026.69
2023-04-03T20:08:39.668Z,100032.09
2023-04-03T20:11:07.431Z,100028.45
2023-04-03T20:13:35.193Z,100029.50
2023-04-03T20:16:03.624Z,100029.36
2023-04-03T20:18:31.647Z,100027.55
2023-04-03T20:20:59.614Z,100027.95
2023-04-03T20:23:27.477Z,100025.19
2023-04-03T20:26:08.801Z,100024.14
2023-04-03T20:28:38.392Z,100022.10
2023-04-03T20:31:06.586Z,100023.27
2023-04-03T20:33:35.605Z,100024.20
2023-04-03T20:36:04.423Z,100023.97
2023-04-03T20:38:32.212Z,100026.41
2023-04-03T20:41:00.443Z,100029.48
2023-04-03T20:43:28.547Z,100030.53
2023-04-03T20:45:56.619Z,100023.31
2023-04-03T20:48:24.325Z,100026.59
2023-04-03T20:50:52.190Z,100025.34
2023-04-03T20:53:20.923Z,100023.98
2023-04-03T20:55:48.582Z,100028.29
2023-04-03T20:58:16.768Z,100028.54
2023-04-03T21:00:44.475Z,100026.64
2023-04-03T21:03:14.118Z,100029.77
2023-04-03T21:05:41.892Z,100027.90
2023-04-03T21:08:10.985Z,100031.48
2023-04-03T21:10:39.117Z,100031.73
2023-04-03T21:13:07.333Z,100032.20
2023-04-03T21:15:34.996Z,100032.18
2023-04-03T21:18:02.754Z,100037.84
2023-04-03T21:20:30.630Z,100035.74
2023-04-03T21:22:58.453Z,100038.42
2023-04-03T21:25:26.160Z,100044.38
2023-04-03T21:27:54.434Z,100045.92
2023-04-03T21:30:23.036Z,100048.84
2023-04-03T21:32:50.842Z,100052.31
2023-04-03T21:35:18.646Z,100053.16
2023-04-03T21:37:46.519Z,100050.09
2023-04-03T21:40:14.183Z,100050.80
2023-04-03T21:42:42.168Z,100049.93
2023-04-03T21:45:10.430Z,100044.13
2023-04-03T21:47:38.517Z,100041.95
2023-04-03T21:50:06.256Z,100036.15
2023-04-03T21:52:33.918Z,100032.01
2023-04-03T21:55:01.772Z,100029.74
2023-04-03T21:57:29.958Z,100024.91
2023-04-03T21:59:57.858Z,100025.94
2023-04-03T22:02:27.284Z,100022.77
2023-04-03T22:04:55.722Z,100018.92
2023-04-03T22:07:23.574Z,100018.16
2023-04-03T22:09:51.541Z,100010.13
2023-04-03T22:12:19.511Z,100005.29
2023-04-03T22:14:47.585Z,100000.23
2023-04-03T22:17:15.552Z,99995.20
2023-04-03T22:19:43.215Z,99987.56
2023-04-03T22:22:11.858Z,99979.48
2023-04-03T22:24:39.559Z,99970.95
2023-04-03T22:27:07.630Z,99967.36
2023-04-03T22:29:35.802Z,99960.33
2023-04-03T22:32:03.567Z,99956.69
2023-04-03T22:34:31.540Z,99953.13
2023-04-03T22:36:59.319Z,99945.95
2023-04-03T22:39:27.061Z,99937.85
2023-04-03T22:41:54.927Z,99932.15
2023-04-03T22:44:23.076Z,99933.91
2023-04-03T22:46:52.315Z,99931.84
2023-04-03T22:49:20.034Z,99924.74
2023-04-03T22:51:47.827Z,99916.70
2023-04-03T22:54:15.620Z,99915.23
2023-04-03T22:56:43.360Z,99912.73
2023-04-03T22:59:11.160Z,99914.80
2023-04-03T23:01:39.745Z,99913.86
2023-04-03T23:04:07.586Z,99912.06
2023-04-03T23:06:36.153Z,99909.50
2023-04-03T23:09:03.917Z,99902.77
2023-04-03T23:11:31.786Z,99903.86
2023-04-03T23:14:00.143Z,99902.89
2023-04-03T23:16:28.252Z,99904.94
2023-04-03T23:18:55.995Z,99904.27
2023-04-03T23:21:23.655Z,99903.98
2023-04-03T23:23:52.362Z,99906.65
2023-04-03T23:26:20.114Z,99907.29
2023-04-03T23:28:48.178Z,99906.34
2023-04-03T23:31:15.853Z,99907.55
2023-04-03T23:36:32.091Z,99908.33
2023-04-03T23:38:59.834Z,99907.69
2023-04-03T23:41:27.792Z,99904.53
2023-04-03T23:43:55.764Z,99906.72
2023-04-03T23:46:23.554Z,99903.64
2023-04-03T23:48:51.795Z,99900.17
2023-04-03T23:51:19.560Z,99900.23
2023-04-03T23:53:47.224Z,99904.20
2023-04-03T23:56:14.987Z,99907.50
2023-04-03T23:58:43.169Z,99914.45
